Time;durP1;ratioP1;P1;durP2;ratioP2;P2;SDS_P1;SDS_P2;PMS_P1;PMS_P2;Temp;Humidity;BMP_temperature;BMP_pressure;BME280_temperature;BME280_humidity;BME280_pressure;Samples;Min_cycle;Max_cycle;Signal;HPM_P1;HPM_P2
2022/01/01 00:02:22;;;;;;;42.63;25.15;;;5.50;99.90;;;;;;5019880;28;20018;-77
2022/01/01 00:04:48;;;;;;;97.10;67.32;;;5.50;99.90;;;;;;5019755;28;20026;-77
2022/01/01 00:07:15;;;;;;;51.05;32.47;;;5.60;99.90;;;;;;5020043;28;20029;-77
2022/01/01 00:09:43;;;;;;;41.33;27.92;;;5.60;99.90;;;;;;5019611;28;20517;-77
2022/01/01 00:12:09;;;;;;;36.42;25.80;;;5.60;99.90;;;;;;5019666;28;20032;-77
2022/01/01 00:14:36;;;;;;;39.50;26.13;;;5.60;99.90;;;;;;5019749;28;20081;-77
2022/01/01 00:17:02;;;;;;;38.90;25.55;;;5.50;99.90;;;;;;5019660;28;20033;-77
2022/01/01 00:19:28;;;;;;;35.83;23.38;;;5.50;99.90;;;;;;5019527;28;20045;-77
2022/01/01 00:21:54;;;;;;;32.38;23.02;;;5.50;99.90;;;;;;5019374;28;20024;-77
2022/01/01 00:24:20;;;;;;;41.15;27.80;;;5.50;99.90;;;;;;5019225;28;20029;-77
2022/01/01 00:26:45;;;;;;;54.58;37.30;;;5.40;99.90;;;;;;5018420;28;20430;-77
2022/01/01 00:29:11;;;;;;;36.42;25.40;;;5.40;99.90;;;;;;5018206;28;20037;-77
2022/01/01 00:31:37;;;;;;;35.90;23.52;;;5.30;99.90;;;;;;5019313;28;20083;-76
2022/01/01 00:34:03;;;;;;;47.22;30.20;;;5.30;99.90;;;;;;5019129;28;20034;-77
2022/01/01 00:36:31;;;;;;;66.35;39.30;;;5.30;99.90;;;;;;5017500;28;20053;-77
2022/01/01 00:38:57;;;;;;;60.92;39.92;;;5.30;99.90;;;;;;5019121;28;20111;-77
2022/01/01 00:41:23;;;;;;;120.40;71.57;;;5.20;99.90;;;;;;5019106;28;20018;-77
2022/01/01 00:43:48;;;;;;;53.78;34.78;;;5.20;99.90;;;;;;5019233;28;20058;-77
2022/01/01 00:46:14;;;;;;;140.25;81.70;;;5.20;99.90;;;;;;5019088;28;20022;-77
2022/01/01 00:48:40;;;;;;;124.97;75.22;;;5.20;99.90;;;;;;5018941;28;20026;-77
2022/01/01 00:51:05;;;;;;;75.43;46.90;;;5.20;99.90;;;;;;5019006;28;20053;-77
2022/01/01 00:53:31;;;;;;;69.05;46.92;;;5.10;99.90;;;;;;5018993;28;20068;-77
2022/01/01 00:55:58;;;;;;;43.10;29.25;;;5.10;99.90;;;;;;5018891;28;20053;-77
2022/01/01 00:58:23;;;;;;;46.95;32.22;;;5.20;99.90;;;;;;5025879;28;20029;-77
2022/01/01 01:00:50;;;;;;;47.00;31.40;;;5.20;99.90;;;;;;5038615;28;20025;-77
2022/01/01 01:03:17;;;;;;;40.65;28.35;;;5.30;99.90;;;;;;5038605;28;20555;-77
2022/01/01 01:05:45;;;;;;;83.82;54.05;;;5.30;99.90;;;;;;5038193;28;20014;-77
2022/01/01 01:08:13;;;;;;;42.20;30.13;;;5.30;99.90;;;;;;5038409;28;20092;-77
2022/01/01 01:10:40;;;;;;;47.80;33.33;;;5.30;99.90;;;;;;5038274;28;20075;-77
2022/01/01 01:13:07;;;;;;;34.00;22.20;;;5.20;99.90;;;;;;5037312;28;20026;-77
2022/01/01 01:15:34;;;;;;;35.47;22.85;;;5.10;99.90;;;;;;5037932;28;20017;-77
2022/01/01 01:18:00;;;;;;;37.90;23.50;;;5.10;99.90;;;;;;5038295;28;20060;-77
2022/01/01 01:20:28;;;;;;;39.95;25.40;;;5.10;99.90;;;;;;5021084;28;20034;-76
2022/01/01 01:22:54;;;;;;;40.45;26.38;;;5.10;99.90;;;;;;5018456;28;20052;-77
2022/01/01 01:25:21;;;;;;;42.95;28.30;;;5.10;99.90;;;;;;5017251;28;20037;-76
2022/01/01 01:27:49;;;;;;;53.13;36.03;;;5.10;99.90;;;;;;5018395;28;20477;-76
2022/01/01 01:30:16;;;;;;;45.50;27.95;;;5.10;99.90;;;;;;5018097;28;20455;-76
2022/01/01 01:32:46;;;;;;;43.70;27.50;;;5.10;99.90;;;;;;5018393;28;20029;-77
2022/01/01 01:35:13;;;;;;;47.20;30.00;;;5.10;99.90;;;;;;5017793;28;20109;-77
2022/01/01 01:37:39;;;;;;;45.95;31.50;;;5.10;99.90;;;;;;5018317;28;20068;-77
2022/01/01 01:40:07;;;;;;;50.90;32.58;;;5.10;99.90;;;;;;5017872;28;20375;-77
2022/01/01 01:42:34;;;;;;;54.50;33.53;;;5.10;99.90;;;;;;5018136;28;20022;-77
2022/01/01 01:45:02;;;;;;;60.92;37.22;;;5.20;99.90;;;;;;5016611;28;20493;-77
2022/01/01 01:47:30;;;;;;;59.78;36.63;;;5.30;99.90;;;;;;5018186;28;20032;-77
2022/01/01 01:49:57;;;;;;;62.65;37.10;;;5.20;99.90;;;;;;5015478;28;20042;-77
2022/01/01 01:52:24;;;;;;;59.17;34.38;;;5.20;99.90;;;;;;5017882;28;20022;-77
2022/01/01 01:54:52;;;;;;;50.90;32.65;;;5.10;99.90;;;;;;5017720;28;20026;-77
2022/01/01 01:57:19;;;;;;;57.92;34.03;;;5.10;99.90;;;;;;5017825;28;20044;-77
2022/01/01 01:59:45;;;;;;;51.72;31.33;;;5.00;99.90;;;;;;5016664;28;20033;-77
2022/01/01 02:02:12;;;;;;;45.47;29.77;;;5.00;99.90;;;;;;5016988;28;20512;-77
2022/01/01 02:04:38;;;;;;;45.80;31.15;;;4.90;99.90;;;;;;5017409;28;20029;-77
2022/01/01 02:07:09;;;;;;;51.30;30.33;;;4.80;99.90;;;;;;5016467;28;20022;-77
2022/01/01 02:09:37;;;;;;;48.75;29.15;;;4.80;99.90;;;;;;5016296;28;20141;-76
2022/01/01 02:12:05;;;;;;;44.70;28.38;;;4.70;99.90;;;;;;5017557;28;20540;-77
2022/01/01 02:15:27;;;;;;;46.95;28.70;;;4.70;99.90;;;;;;5017688;28;20505;-77
2022/01/01 02:17:17;;;;;;;44.55;27.88;;;4.60;99.90;;;;;;5020240;28;20030;-77
2022/01/01 02:19:51;;;;;;;40.15;27.08;;;4.50;99.90;;;;;;5017292;28;20026;-77
2022/01/01 02:22:18;;;;;;;50.65;27.88;;;4.40;99.90;;;;;;5017428;28;20494;-77
2022/01/01 02:24:44;;;;;;;46.42;29.00;;;4.40;99.90;;;;;;5017750;28;20474;-77
2022/01/01 02:27:11;;;;;;;40.53;26.45;;;4.40;99.90;;;;;;5017479;28;20045;-77
2022/01/01 02:29:38;;;;;;;41.88;28.83;;;4.30;99.90;;;;;;5016037;28;20038;-77
2022/01/01 02:32:08;;;;;;;45.03;29.58;;;4.30;99.90;;;;;;5017388;28;20022;-77
2022/01/01 02:34:35;;;;;;;46.33;30.63;;;4.30;99.90;;;;;;5015694;28;20033;-77
2022/01/01 02:37:01;;;;;;;48.92;30.02;;;4.20;99.90;;;;;;5015978;28;20401;-77
2022/01/01 02:39:27;;;;;;;42.85;28.45;;;4.20;99.90;;;;;;5017256;28;20108;-77
2022/01/01 02:41:54;;;;;;;41.78;28.17;;;4.10;99.90;;;;;;5017063;28;20018;-77
2022/01/01 02:44:22;;;;;;;45.42;29.45;;;4.10;99.90;;;;;;5017464;28;20022;-77
2022/01/01 02:46:47;;;;;;;44.60;29.05;;;4.00;99.90;;;;;;5017172;28;20026;-77
2022/01/01 02:49:13;;;;;;;43.95;28.70;;;4.00;99.90;;;;;;5017096;28;20478;-77
2022/01/01 02:51:39;;;;;;;47.10;31.77;;;3.90;99.90;;;;;;5014858;28;20060;-77
2022/01/01 02:54:05;;;;;;;47.33;31.38;;;3.90;99.90;;;;;;5015904;28;20053;-77
2022/01/01 02:56:31;;;;;;;46.20;30.92;;;3.80;99.90;;;;;;5015677;28;20033;-77
2022/01/01 02:58:57;;;;;;;42.33;29.98;;;3.70;99.90;;;;;;5017220;28;20018;-77
2022/01/01 03:01:22;;;;;;;49.80;31.60;;;3.70;99.90;;;;;;5019937;28;20060;-76
2022/01/01 03:03:48;;;;;;;46.90;29.05;;;3.80;99.90;;;;;;5019475;28;20036;-76
2022/01/01 03:06:20;;;;;;;42.78;30.95;;;3.70;99.90;;;;;;5019634;28;20022;-76
2022/01/01 03:08:55;;;;;;;46.20;30.52;;;3.70;99.90;;;;;;5020869;28;20057;-77
2022/01/01 03:11:21;;;;;;;49.65;31.17;;;3.70;99.90;;;;;;5020987;28;20478;-77
2022/01/01 03:13:48;;;;;;;45.55;30.55;;;3.70;99.90;;;;;;5020752;28;20442;-77
2022/01/01 03:16:14;;;;;;;46.40;30.20;;;3.70;99.90;;;;;;5020815;28;20037;-77
2022/01/01 03:18:41;;;;;;;48.67;31.05;;;3.70;99.90;;;;;;5020408;28;20092;-77
2022/01/01 03:21:07;;;;;;;42.22;29.38;;;3.70;99.90;;;;;;5020790;28;20097;-77
2022/01/01 03:23:33;;;;;;;47.20;29.35;;;3.70;99.90;;;;;;5019512;28;20033;-77
2022/01/01 03:25:59;;;;;;;46.75;28.00;;;3.70;99.90;;;;;;5020711;28;20451;-77
2022/01/01 03:28:26;;;;;;;49.95;30.40;;;3.70;99.90;;;;;;5019429;28;20033;-77
2022/01/01 03:30:52;;;;;;;49.92;30.67;;;3.70;99.90;;;;;;5020613;28;20026;-76
2022/01/01 03:33:17;;;;;;;45.05;28.98;;;3.80;99.90;;;;;;5020409;28;20540;-76
2022/01/01 03:35:43;;;;;;;43.25;27.27;;;3.70;99.90;;;;;;5020230;28;20053;-76
2022/01/01 03:38:09;;;;;;;38.20;24.35;;;3.70;99.90;;;;;;5018887;28;20037;-76
2022/01/01 03:40:35;;;;;;;42.17;28.83;;;3.70;99.90;;;;;;5020726;28;20022;-77
2022/01/01 03:43:01;;;;;;;45.45;28.67;;;3.70;99.90;;;;;;5020233;28;20026;-77
2022/01/01 03:45:26;;;;;;;44.05;26.42;;;3.70;99.90;;;;;;5020480;28;20054;-77
2022/01/01 03:47:52;;;;;;;44.85;27.30;;;3.70;99.90;;;;;;5018932;28;20018;-77
2022/01/01 03:50:18;;;;;;;46.13;28.17;;;3.70;99.90;;;;;;5020100;28;20041;-77
2022/01/01 03:52:45;;;;;;;44.70;28.98;;;3.60;99.90;;;;;;5020068;28;20037;-77
2022/01/01 03:55:12;;;;;;;44.80;27.40;;;3.60;99.90;;;;;;5020250;28;20397;-77
2022/01/01 03:57:38;;;;;;;40.13;27.63;;;3.60;99.90;;;;;;5018641;28;20026;-77
2022/01/01 04:00:08;;;;;;;43.45;28.13;;;3.50;99.90;;;;;;5020092;28;20040;-77
2022/01/01 04:02:34;;;;;;;46.70;28.65;;;3.60;99.90;;;;;;5019835;28;20018;-76
2022/01/01 04:05:00;;;;;;;50.50;29.25;;;3.60;99.90;;;;;;5019735;28;20025;-77
2022/01/01 04:07:26;;;;;;;43.40;26.33;;;3.60;99.90;;;;;;5019443;28;20025;-77
2022/01/01 04:09:51;;;;;;;36.55;23.88;;;3.60;99.90;;;;;;5018408;28;20087;-77
2022/01/01 04:12:18;;;;;;;40.90;25.52;;;3.60;99.90;;;;;;5018320;28;20050;-77
2022/01/01 04:14:44;;;;;;;43.45;26.65;;;3.60;99.90;;;;;;5018398;28;20117;-77
2022/01/01 04:17:11;;;;;;;44.13;27.45;;;3.50;99.90;;;;;;5017024;28;20496;-77
2022/01/01 04:19:39;;;;;;;43.80;27.00;;;3.50;99.90;;;;;;5018241;28;20029;-77
2022/01/01 04:22:13;;;;;;;40.88;24.67;;;3.50;99.90;;;;;;5018590;28;20030;-77
2022/01/01 04:24:40;;;;;;;34.63;22.48;;;3.40;99.90;;;;;;5038029;28;20022;-77
2022/01/01 04:27:07;;;;;;;37.15;22.35;;;3.50;99.90;;;;;;5014892;28;20099;-77
2022/01/01 04:29:33;;;;;;;36.00;23.70;;;3.40;99.90;;;;;;5018592;28;20050;-77
2022/01/01 04:32:00;;;;;;;43.17;25.40;;;3.50;99.90;;;;;;5050248;28;20037;-76
2022/01/01 04:34:27;;;;;;;37.47;24.42;;;3.50;99.90;;;;;;5018303;28;20025;-77
2022/01/01 04:37:07;;;;;;;43.42;27.17;;;3.40;99.90;;;;;;5016540;28;20608;-77
2022/01/01 04:39:33;;;;;;;42.47;26.50;;;3.40;99.90;;;;;;5018214;28;20509;-76
2022/01/01 04:41:59;;;;;;;44.95;28.48;;;3.50;99.90;;;;;;5015200;28;20037;-77
2022/01/01 04:44:25;;;;;;;41.80;27.60;;;3.50;99.90;;;;;;5017183;28;20026;-77
2022/01/01 04:46:50;;;;;;;46.38;28.90;;;3.50;99.90;;;;;;5016054;28;20486;-77
2022/01/01 04:49:16;;;;;;;46.95;28.60;;;3.50;99.90;;;;;;5017798;28;20022;-77
2022/01/01 04:51:42;;;;;;;41.58;27.27;;;3.60;99.90;;;;;;5049874;28;20048;-77
2022/01/01 04:54:15;;;;;;;40.08;24.40;;;3.60;99.90;;;;;;5018174;28;20022;-77
2022/01/01 04:56:44;;;;;;;35.83;23.60;;;3.60;99.90;;;;;;5018405;28;20161;-77
2022/01/01 04:59:11;;;;;;;43.53;26.10;;;3.60;99.90;;;;;;5018080;28;20026;-77
2022/01/01 05:01:37;;;;;;;38.30;25.92;;;3.50;99.90;;;;;;5015153;28;20421;-77
2022/01/01 05:04:02;;;;;;;52.33;24.67;;;3.40;99.90;;;;;;5049327;28;20026;-77
2022/01/01 05:06:28;;;;;;;53.85;29.05;;;3.40;99.90;;;;;;5018918;28;20032;-77
2022/01/01 05:08:54;;;;;;;43.55;27.33;;;3.60;99.90;;;;;;5049199;28;20050;-77
2022/01/01 05:11:20;;;;;;;40.47;25.75;;;3.80;99.90;;;;;;5017422;28;20034;-77
2022/01/01 05:13:45;;;;;;;44.13;28.52;;;3.90;99.90;;;;;;5049157;28;20030;-77
2022/01/01 05:16:15;;;;;;;41.72;25.23;;;3.90;99.90;;;;;;5017559;28;20036;-77
2022/01/01 05:18:41;;;;;;;42.80;27.42;;;4.00;99.90;;;;;;5013538;28;20026;-77
2022/01/01 05:21:07;;;;;;;39.80;23.83;;;3.90;99.90;;;;;;5048842;28;20033;-77
2022/01/01 05:23:33;;;;;;;40.20;22.45;;;3.90;99.90;;;;;;5017018;28;20030;-76
2022/01/01 05:25:59;;;;;;;28.17;19.05;;;3.80;99.90;;;;;;5017301;28;20025;-77
2022/01/01 05:28:25;;;;;;;31.50;18.95;;;3.70;99.90;;;;;;5013554;28;20141;-77
2022/01/01 05:30:51;;;;;;;26.58;18.90;;;3.60;99.90;;;;;;5016952;28;20021;-77
2022/01/01 05:33:17;;;;;;;31.58;21.00;;;3.60;99.90;;;;;;5015810;28;20018;-77
2022/01/01 05:35:43;;;;;;;35.35;22.00;;;3.60;99.90;;;;;;5016095;28;20500;-77
2022/01/01 05:38:08;;;;;;;30.90;20.45;;;3.60;99.90;;;;;;5016743;28;20439;-77
2022/01/01 05:40:34;;;;;;;33.80;20.08;;;3.50;99.90;;;;;;5015870;28;20018;-77
2022/01/01 05:43:00;;;;;;;26.40;20.77;;;3.50;99.90;;;;;;5016912;28;20022;-76
2022/01/01 05:45:26;;;;;;;30.75;18.92;;;3.40;99.90;;;;;;5017089;28;20026;-77
2022/01/01 05:47:52;;;;;;;26.75;18.10;;;3.40;99.90;;;;;;5017743;28;20022;-77
2022/01/01 05:50:20;;;;;;;25.92;18.75;;;3.30;99.90;;;;;;5017922;28;20057;-77
2022/01/01 05:52:46;;;;;;;37.88;25.05;;;3.30;99.90;;;;;;5017682;28;20056;-77
2022/01/01 05:55:12;;;;;;;48.58;32.50;;;3.20;99.90;;;;;;5016401;28;20026;-77
2022/01/01 05:57:38;;;;;;;47.75;31.73;;;3.20;99.90;;;;;;5016342;28;20040;-77
2022/01/01 06:00:07;;;;;;;34.78;25.85;;;3.30;99.90;;;;;;5017671;28;20479;-77
2022/01/01 06:02:42;;;;;;;50.97;29.35;;;3.30;99.90;;;;;;5031890;28;20021;-77
2022/01/01 06:05:09;;;;;;;43.70;25.15;;;3.40;99.90;;;;;;5035826;28;20061;-77
2022/01/01 06:07:35;;;;;;;42.92;27.10;;;3.40;99.90;;;;;;5037421;28;20021;-77
2022/01/01 06:10:01;;;;;;;36.60;24.10;;;3.50;99.90;;;;;;5037483;28;20052;-77
2022/01/01 06:12:27;;;;;;;41.17;25.77;;;3.50;99.90;;;;;;5027535;28;20056;-76
2022/01/01 06:14:53;;;;;;;45.47;24.60;;;3.60;99.90;;;;;;5017676;28;20029;-77
2022/01/01 06:17:19;;;;;;;40.50;24.08;;;3.70;99.90;;;;;;5017487;28;20536;-77
2022/01/01 06:19:45;;;;;;;55.22;25.10;;;3.70;99.90;;;;;;5016025;28;20053;-77
2022/01/01 06:22:10;;;;;;;42.03;24.52;;;3.80;99.90;;;;;;5017486;28;20074;-77
2022/01/01 06:24:36;;;;;;;40.67;23.95;;;3.80;99.90;;;;;;5017596;28;20505;-77
2022/01/01 06:27:03;;;;;;;45.25;22.92;;;3.80;99.90;;;;;;5017264;28;20018;-77
2022/01/01 06:29:28;;;;;;;33.85;21.23;;;3.80;99.90;;;;;;5017777;28;20026;-77
2022/01/01 06:31:54;;;;;;;31.42;22.15;;;3.80;99.90;;;;;;5017224;28;20032;-77
2022/01/01 06:34:20;;;;;;;33.90;20.95;;;3.70;99.90;;;;;;5016886;28;20050;-77
2022/01/01 06:36:46;;;;;;;37.15;21.52;;;3.60;99.90;;;;;;5016847;28;20030;-77
2022/01/01 06:39:11;;;;;;;32.97;21.75;;;3.60;99.90;;;;;;5017322;28;20489;-77
2022/01/01 06:41:37;;;;;;;32.13;23.25;;;3.60;99.90;;;;;;5015766;28;20026;-77
2022/01/01 06:44:03;;;;;;;35.70;22.40;;;3.50;99.90;;;;;;5016008;28;20482;-77
2022/01/01 06:46:29;;;;;;;34.03;22.55;;;3.50;99.90;;;;;;5017170;28;20521;-77
2022/01/01 06:48:54;;;;;;;35.28;22.50;;;3.50;99.90;;;;;;5015801;28;20030;-77
2022/01/01 06:51:21;;;;;;;37.22;24.58;;;3.60;99.90;;;;;;5016939;28;20061;-77
2022/01/01 06:53:46;;;;;;;38.22;23.38;;;3.60;99.90;;;;;;5017397;28;20025;-76
2022/01/01 06:56:12;;;;;;;31.60;21.25;;;3.70;99.90;;;;;;5017023;28;20026;-76
2022/01/01 06:58:39;;;;;;;31.42;20.15;;;3.60;99.90;;;;;;5017155;28;20029;-76
2022/01/01 07:01:05;;;;;;;26.42;19.17;;;3.50;99.90;;;;;;5016808;28;20018;-77
2022/01/01 07:03:31;;;;;;;33.17;20.98;;;3.50;99.90;;;;;;5015554;28;20030;-77
2022/01/01 07:05:56;;;;;;;31.40;21.20;;;3.40;99.90;;;;;;5015640;28;20072;-77
2022/01/01 07:08:22;;;;;;;30.42;19.77;;;3.40;99.90;;;;;;5016995;28;20050;-77
2022/01/01 07:10:48;;;;;;;37.80;21.48;;;3.30;99.90;;;;;;5015912;28;20029;-77
2022/01/01 07:13:15;;;;;;;35.08;21.85;;;3.30;99.90;;;;;;5016873;28;20026;-77
2022/01/01 07:15:41;;;;;;;31.80;21.20;;;3.40;99.90;;;;;;5017068;28;20073;-77
2022/01/01 07:18:07;;;;;;;38.20;21.40;;;3.40;99.90;;;;;;5017065;28;20061;-77
2022/01/01 07:20:33;;;;;;;35.05;21.17;;;3.40;99.90;;;;;;5016654;28;20514;-77
2022/01/01 07:22:59;;;;;;;55.35;22.02;;;3.40;99.90;;;;;;5016860;28;20026;-77
2022/01/01 07:25:24;;;;;;;50.70;22.13;;;3.50;99.90;;;;;;5016820;28;20071;-77
2022/01/01 07:27:50;;;;;;;72.57;22.85;;;3.50;99.90;;;;;;5016869;28;20054;-77
2022/01/01 07:30:16;;;;;;;95.25;23.75;;;3.50;99.90;;;;;;5016722;28;20156;-77
2022/01/01 07:32:44;;;;;;;90.75;23.45;;;3.50;99.90;;;;;;5016968;28;20085;-77
2022/01/01 07:35:11;;;;;;;113.25;23.08;;;3.60;99.90;;;;;;5016341;28;20048;-76
2022/01/01 07:37:37;;;;;;;128.27;24.33;;;3.60;99.90;;;;;;5016963;28;20061;-77
2022/01/01 07:40:06;;;;;;;61.47;21.20;;;3.60;99.90;;;;;;5016676;28;20502;-77
2022/01/01 07:42:32;;;;;;;62.50;21.50;;;3.70;99.90;;;;;;5016721;28;20022;-77
2022/01/01 07:44:59;;;;;;;90.05;22.60;;;3.70;99.90;;;;;;5015397;28;20122;-76
2022/01/01 07:47:25;;;;;;;75.25;21.90;;;3.70;99.90;;;;;;5017720;28;20467;-76
2022/01/01 07:49:51;;;;;;;75.97;20.63;;;3.70;99.90;;;;;;5018750;28;20089;-77
2022/01/01 07:52:17;;;;;;;60.90;18.70;;;3.70;99.90;;;;;;5018886;28;20520;-77
2022/01/01 07:54:43;;;;;;;102.43;20.73;;;3.70;99.90;;;;;;5018704;28;20502;-77
2022/01/01 07:57:09;;;;;;;114.88;20.98;;;3.80;99.90;;;;;;5020019;28;20033;-77
2022/01/01 07:59:35;;;;;;;47.80;19.25;;;3.80;99.90;;;;;;5018734;28;20402;-77
2022/01/01 08:02:00;;;;;;;67.57;18.48;;;3.70;99.90;;;;;;5018567;28;20029;-77
2022/01/01 08:04:26;;;;;;;91.00;22.05;;;3.80;99.90;;;;;;5019545;28;20022;-77
2022/01/01 08:06:52;;;;;;;73.03;17.42;;;3.80;99.90;;;;;;5019986;28;20022;-77
2022/01/01 08:09:18;;;;;;;60.35;18.63;;;3.70;99.90;;;;;;5018386;28;20064;-77
2022/01/01 08:11:43;;;;;;;91.55;16.10;;;3.70;99.90;;;;;;5018270;28;20034;-77
2022/01/01 08:14:09;;;;;;;32.38;14.00;;;3.70;99.90;;;;;;5019594;28;20082;-77
2022/01/01 08:17:01;;;;;;;40.53;14.85;;;3.80;99.90;;;;;;5019401;28;20037;-77
2022/01/01 08:19:28;;;;;;;84.78;36.75;;;3.80;99.90;;;;;;5019122;28;20068;-77
2022/01/01 08:21:55;;;;;;;90.22;42.90;;;3.80;99.90;;;;;;5019530;28;20053;-77
2022/01/01 08:24:21;;;;;;;83.47;43.38;;;3.80;99.90;;;;;;5019748;28;20045;-77
2022/01/01 08:26:47;;;;;;;68.57;34.92;;;3.90;99.90;;;;;;5019625;28;20152;-77
2022/01/01 08:29:13;;;;;;;57.97;30.55;;;3.90;99.90;;;;;;5019607;28;20058;-77
2022/01/01 08:31:39;;;;;;;35.50;22.80;;;3.90;99.90;;;;;;5018163;28;20108;-77
2022/01/01 08:34:05;;;;;;;39.03;23.13;;;3.90;99.90;;;;;;5017947;28;20061;-76
2022/01/01 08:36:31;;;;;;;31.90;19.75;;;4.00;99.90;;;;;;5017774;28;20026;-76
2022/01/01 08:38:56;;;;;;;30.13;19.48;;;4.10;99.90;;;;;;5019227;28;20025;-76
2022/01/01 08:41:22;;;;;;;33.72;21.35;;;4.10;99.90;;;;;;5018893;28;20030;-76
2022/01/01 08:43:48;;;;;;;43.63;27.17;;;4.20;99.90;;;;;;5017905;28;20076;-76
2022/01/01 08:46:14;;;;;;;44.58;27.40;;;4.20;99.90;;;;;;5018999;28;20076;-77
2022/01/01 08:48:41;;;;;;;68.78;44.22;;;4.30;99.90;;;;;;5019168;28;20462;-76
2022/01/01 08:51:15;;;;;;;46.92;32.25;;;4.30;99.90;;;;;;5016880;28;20121;-76
2022/01/01 08:53:41;;;;;;;59.50;38.10;;;4.40;99.90;;;;;;5050227;28;20024;-76
2022/01/01 08:56:07;;;;;;;35.00;23.40;;;4.40;99.90;;;;;;5015121;28;20022;-77
2022/01/01 08:58:34;;;;;;;35.22;20.90;;;4.40;99.90;;;;;;5017586;28;20018;-77
2022/01/01 09:01:00;;;;;;;35.25;23.27;;;4.50;99.90;;;;;;5049974;28;20030;-77
2022/01/01 09:03:26;;;;;;;47.85;33.60;;;4.60;99.90;;;;;;5018991;28;20584;-76
2022/01/01 09:05:53;;;;;;;68.63;43.88;;;4.60;99.90;;;;;;5050511;28;20068;-77
2022/01/01 09:08:18;;;;;;;63.15;37.95;;;4.70;99.90;;;;;;5017915;28;20046;-77
2022/01/01 09:10:44;;;;;;;51.00;32.88;;;4.80;99.90;;;;;;5050021;28;20037;-77
2022/01/01 09:13:10;;;;;;;56.00;37.10;;;4.90;99.90;;;;;;5049740;28;20018;-77
2022/01/01 09:15:36;;;;;;;77.45;47.20;;;4.90;99.90;;;;;;5049623;28;20538;-77
2022/01/01 09:18:02;;;;;;;94.38;63.25;;;5.00;99.90;;;;;;5018559;28;20079;-76
2022/01/01 09:20:27;;;;;;;69.28;45.22;;;5.10;99.90;;;;;;5016835;28;20478;-77
2022/01/01 09:22:53;;;;;;;47.75;30.73;;;5.20;99.90;;;;;;5018670;28;20421;-77
2022/01/01 09:25:19;;;;;;;38.08;25.77;;;5.30;99.90;;;;;;5017822;28;20500;-77
2022/01/01 09:27:44;;;;;;;59.88;40.03;;;5.30;99.90;;;;;;5016922;28;20033;-76
2022/01/01 09:30:11;;;;;;;65.03;44.80;;;5.40;99.90;;;;;;5018182;28;20834;-76
2022/01/01 09:32:36;;;;;;;55.58;34.80;;;5.60;99.90;;;;;;5018005;28;20513;-77
2022/01/01 09:35:02;;;;;;;47.22;31.02;;;5.70;99.90;;;;;;5016031;28;20112;-76
2022/01/01 09:37:29;;;;;;;47.65;30.58;;;5.80;99.90;;;;;;5018145;28;20092;-77
2022/01/01 09:39:57;;;;;;;47.88;30.85;;;5.90;99.90;;;;;;5017882;28;20026;-77
2022/01/01 09:42:23;;;;;;;62.22;30.00;;;6.10;99.90;;;;;;5016429;28;20596;-76
2022/01/01 09:44:51;;;;;;;54.17;30.85;;;6.20;99.90;;;;;;5017669;28;20061;-77
2022/01/01 09:47:17;;;;;;;45.72;27.30;;;6.40;99.90;;;;;;5018249;28;20017;-77
2022/01/01 09:49:43;;;;;;;58.78;31.20;;;6.40;99.90;;;;;;5017623;28;20097;-77
2022/01/01 09:52:12;;;;;;;80.05;39.60;;;6.50;99.90;;;;;;5018007;28;20041;-76
2022/01/01 09:54:37;;;;;;;62.38;32.90;;;6.60;99.90;;;;;;5016421;28;20402;-76
2022/01/01 09:57:04;;;;;;;46.17;27.95;;;6.70;99.90;;;;;;5016546;28;20026;-77
2022/01/01 09:59:31;;;;;;;47.38;24.95;;;6.80;99.90;;;;;;5017692;28;20026;-76
2022/01/01 10:01:56;;;;;;;37.50;23.17;;;6.80;99.90;;;;;;5017958;28;20031;-76
2022/01/01 10:04:22;;;;;;;39.95;23.50;;;7.00;99.90;;;;;;5017316;28;20025;-75
2022/01/01 10:07:05;;;;;;;38.83;22.33;;;7.00;99.90;;;;;;5017614;28;20033;-76
2022/01/01 10:09:36;;;;;;;37.20;24.65;;;7.10;99.90;;;;;;5016782;28;20050;-76
2022/01/01 10:12:06;;;;;;;35.20;21.90;;;7.20;99.90;;;;;;5016223;28;20029;-76
2022/01/01 10:14:36;;;;;;;34.20;22.02;;;7.30;99.90;;;;;;5017812;28;20037;-76
2022/01/01 10:17:23;;;;;;;29.65;18.85;;;7.30;99.90;;;;;;5017626;28;20032;-76
2022/01/01 10:19:51;;;;;;;33.33;20.42;;;7.40;99.90;;;;;;5015578;28;20164;-75
2022/01/01 10:22:19;;;;;;;28.42;18.55;;;7.50;99.90;;;;;;5016444;28;20030;-77
2022/01/01 10:27:46;;;;;;;27.17;17.52;;;7.60;99.90;;;;;;5017603;28;20053;-76
2022/01/01 10:30:22;;;;;;;28.35;18.38;;;7.80;99.90;;;;;;5017355;28;20483;-76
2022/01/01 10:33:09;;;;;;;26.25;18.63;;;7.80;99.90;;;;;;5017306;28;20151;-76
2022/01/01 10:35:58;;;;;;;24.77;17.73;;;7.90;99.90;;;;;;5017332;28;20022;-75
2022/01/01 10:38:26;;;;;;;23.15;16.33;;;8.00;99.90;;;;;;5016966;28;20038;-76
2022/01/01 10:41:04;;;;;;;24.05;16.75;;;8.00;99.90;;;;;;5015917;28;20086;-76
2022/01/01 10:43:44;;;;;;;25.38;16.98;;;8.10;99.90;;;;;;5016625;28;20022;-76
2022/01/01 10:46:15;;;;;;;24.77;16.67;;;8.10;99.90;;;;;;5016818;28;20029;-75
2022/01/01 10:48:54;;;;;;;19.95;13.80;;;8.20;99.90;;;;;;5017186;28;20030;-76
2022/01/01 10:51:20;;;;;;;22.52;14.07;;;8.20;99.90;;;;;;5017004;28;20083;-77
2022/01/01 10:53:46;;;;;;;17.17;13.80;;;8.20;99.90;;;;;;5017253;28;20108;-77
2022/01/01 10:56:20;;;;;;;15.98;12.15;;;8.30;99.90;;;;;;5017192;28;20386;-76
2022/01/01 10:58:59;;;;;;;16.58;12.90;;;8.30;99.90;;;;;;5017240;28;20479;-76
2022/01/01 11:01:25;;;;;;;35.75;23.00;;;8.40;99.90;;;;;;5017173;28;20053;-78
2022/01/01 11:03:54;;;;;;;25.17;18.40;;;8.50;99.90;;;;;;5016841;28;20022;-75
2022/01/01 11:06:21;;;;;;;16.10;13.45;;;8.60;99.90;;;;;;5001290;28;20057;-75
2022/01/01 11:08:47;;;;;;;15.88;12.38;;;8.70;99.90;;;;;;5016812;28;20126;-75
2022/01/01 11:11:15;;;;;;;14.38;11.82;;;8.70;99.90;;;;;;5016831;28;20042;-74
2022/01/01 11:13:42;;;;;;;14.15;11.88;;;8.80;99.90;;;;;;5009379;28;20108;-74
2022/01/01 11:16:09;;;;;;;16.80;12.98;;;8.80;99.90;;;;;;5015634;28;20105;-74
2022/01/01 11:18:36;;;;;;;15.73;12.05;;;8.90;99.90;;;;;;5016546;28;20080;-74
2022/01/01 11:21:04;;;;;;;18.52;12.55;;;9.00;99.90;;;;;;5049173;28;20026;-74
2022/01/01 11:23:32;;;;;;;14.15;11.85;;;9.00;99.90;;;;;;5020360;28;20045;-74
2022/01/01 11:25:58;;;;;;;13.70;12.23;;;9.10;99.90;;;;;;5019258;28;20371;-74
2022/01/01 11:28:25;;;;;;;14.52;11.90;;;9.10;99.90;;;;;;5019037;28;20032;-74
2022/01/01 11:31:08;;;;;;;16.00;13.48;;;9.20;99.90;;;;;;5020151;28;20018;-73
2022/01/01 11:33:36;;;;;;;15.10;12.27;;;9.40;99.90;;;;;;5017246;28;20046;-73
2022/01/01 11:36:02;;;;;;;18.23;12.10;;;9.50;99.90;;;;;;5020092;28;20532;-76
2022/01/01 11:38:32;;;;;;;13.60;11.48;;;9.60;99.90;;;;;;5018815;28;20040;-73
2022/01/01 11:41:04;;;;;;;16.48;12.35;;;9.60;99.90;;;;;;5020257;28;20022;-74
2022/01/01 11:43:49;;;;;;;14.63;11.85;;;9.80;99.90;;;;;;5019934;28;20032;-73
2022/01/01 11:46:27;;;;;;;13.13;11.50;;;9.90;99.90;;;;;;5018954;28;20026;-73
2022/01/01 11:48:57;;;;;;;14.13;11.63;;;10.00;99.90;;;;;;5020063;28;20505;-73
2022/01/01 11:51:23;;;;;;;;;;;10.10;99.90;;;;;;5018906;28;20025;-73
2022/01/01 11:54:13;;;;;;;11.63;10.18;;;10.20;99.90;;;;;;5018875;28;20020;-73
2022/01/01 11:56:52;;;;;;;12.88;10.70;;;10.30;99.90;;;;;;5019933;28;20399;-73
2022/01/01 11:59:47;;;;;;;15.30;11.48;;;10.30;99.90;;;;;;5019032;28;20040;-75
2022/01/01 12:02:19;;;;;;;15.75;11.38;;;10.40;99.90;;;;;;5020002;28;20022;-73
2022/01/01 12:04:47;;;;;;;12.90;9.98;;;10.50;99.90;;;;;;5019945;28;20029;-73
2022/01/01 12:07:18;;;;;;;11.85;10.32;;;10.60;99.90;;;;;;5019137;28;20033;-73
2022/01/01 12:10:08;;;;;;;12.18;10.13;;;10.70;99.90;;;;;;5019763;28;20053;-73
2022/01/01 12:12:37;;;;;;;13.63;10.38;;;10.70;99.90;;;;;;5019638;28;20036;-73
2022/01/01 12:15:25;;;;;;;12.30;10.38;;;10.80;99.90;;;;;;5019806;28;20048;-73
2022/01/01 12:17:53;;;;;;;14.30;10.57;;;10.90;99.90;;;;;;5018363;28;20435;-73
2022/01/01 12:20:24;;;;;;;12.77;10.05;;;10.90;99.90;;;;;;5019383;28;20030;-73
2022/01/01 12:22:52;;;;;;;9.82;8.77;;;11.00;99.90;;;;;;5019665;28;20018;-73
2022/01/01 12:25:23;;;;;;;10.38;8.98;;;11.00;99.90;;;;;;5019628;28;20026;-73
2022/01/01 12:27:51;;;;;;;9.40;8.43;;;11.10;99.90;;;;;;5017960;28;20033;-73
2022/01/01 12:30:35;;;;;;;9.00;8.02;;;11.20;99.90;;;;;;5019275;28;20051;-73
2022/01/01 12:33:01;;;;;;;10.20;9.18;;;11.30;99.90;;;;;;5018197;28;20033;-73
2022/01/01 12:35:57;;;;;;;10.90;9.68;;;11.50;99.90;;;;;;5017810;28;20057;-73
2022/01/01 12:38:28;;;;;;;9.93;8.88;;;11.60;99.90;;;;;;5017812;28;20056;-73
2022/01/01 12:40:55;;;;;;;12.38;9.88;;;11.70;99.90;;;;;;5018365;28;20101;-74
2022/01/01 12:43:22;;;;;;;10.85;8.82;;;11.80;99.90;;;;;;5019006;28;20029;-74